Fine Lakes, Minnesota
Current Conditions -  °F | °C
As of 12:16 PM on Friday 28 Nov 2014 (Local Time) from KCOQ Reporting Station
Light Snow Light Snow  
Wind Chill: 12°   Ceiling: 4600
Heat Index: 12°   Visibility: 4mi
Dew Point:   Wind: 3mph
Humidity: 85%   Direction: 120°ESE
Pressure: 29.91"   Gusts: NA
Location:  46.8211°N, 92.6871°W
Report Text: KCOQ 281816Z AUTO 12003KT 4SM -SN SCT009 OVC046 M11/M13 A2991 RMK AO2
Loading
Personal Weather Stations






























Interactive Weather Map New forecast layout! Learn more

10-Day Weather Forecast

Advertisements
Track Severe Weather on mobile